sensor_id;sensor_type;location;lat;lon;timestamp;pressure;altitude;pressure_sealevel;temperature;humidity
76404;BME280;65232;48.358;2.122;2023-07-20T00:00:20;101019.22;;;16.10;71.85
76404;BME280;65232;48.358;2.122;2023-07-20T00:00:46;101018.81;;;16.05;72.41
76404;BME280;65232;48.358;2.122;2023-07-20T00:01:11;101021.69;;;16.04;72.64
76404;BME280;65232;48.358;2.122;2023-07-20T00:01:37;101020.63;;;15.97;72.71
76404;BME280;65232;48.358;2.122;2023-07-20T00:02:03;101016.13;;;16.05;72.95
76404;BME280;65232;48.358;2.122;2023-07-20T00:02:30;101019.53;;;16.07;72.39
76404;BME280;65232;48.358;2.122;2023-07-20T00:03:14;101017.09;;;15.96;72.83
76404;BME280;65232;48.358;2.122;2023-07-20T00:03:44;101021.88;;;16.02;72.62
76404;BME280;65232;48.358;2.122;2023-07-20T00:04:10;101026.88;;;15.97;72.56
76404;BME280;65232;48.358;2.122;2023-07-20T00:04:35;101021.41;;;15.89;72.69
76404;BME280;65232;48.358;2.122;2023-07-20T00:05:00;101016.06;;;15.97;72.73
76404;BME280;65232;48.358;2.122;2023-07-20T00:05:26;101022.47;;;15.96;72.87
76404;BME280;65232;48.358;2.122;2023-07-20T00:05:51;101016.53;;;15.93;72.61
76404;BME280;65232;48.358;2.122;2023-07-20T00:06:17;101013.47;;;15.88;73.08
76404;BME280;65232;48.358;2.122;2023-07-20T00:06:44;101017.00;;;15.88;72.62
76404;BME280;65232;48.358;2.122;2023-07-20T00:07:10;101016.63;;;15.83;72.91
76404;BME280;65232;48.358;2.122;2023-07-20T00:07:36;101019.03;;;15.86;72.24
76404;BME280;65232;48.358;2.122;2023-07-20T00:08:01;101016.50;;;15.84;72.39
76404;BME280;65232;48.358;2.122;2023-07-20T00:08:27;101012.25;;;15.82;72.60
76404;BME280;65232;48.358;2.122;2023-07-20T00:08:52;101018.63;;;15.81;72.82
76404;BME280;65232;48.358;2.122;2023-07-20T00:09:18;101014.84;;;15.74;72.82
76404;BME280;65232;48.358;2.122;2023-07-20T00:09:43;101020.66;;;15.79;73.00
76404;BME280;65232;48.358;2.122;2023-07-20T00:10:09;101017.38;;;15.93;72.66
76404;BME280;65232;48.358;2.122;2023-07-20T00:10:34;101011.78;;;15.86;72.66
76404;BME280;65232;48.358;2.122;2023-07-20T00:11:00;101022.19;;;15.81;72.71
76404;BME280;65232;48.358;2.122;2023-07-20T00:11:26;101020.94;;;15.76;72.97
76404;BME280;65232;48.358;2.122;2023-07-20T00:11:52;101016.25;;;15.78;72.77
76404;BME280;65232;48.358;2.122;2023-07-20T00:12:18;101007.59;;;15.74;73.15
76404;BME280;65232;48.358;2.122;2023-07-20T00:12:43;101012.84;;;15.76;73.13
76404;BME280;65232;48.358;2.122;2023-07-20T00:13:13;101015.34;;;15.69;73.30
76404;BME280;65232;48.358;2.122;2023-07-20T00:13:38;101013.63;;;15.68;73.31
76404;BME280;65232;48.358;2.122;2023-07-20T00:14:05;101015.78;;;15.65;73.58
76404;BME280;65232;48.358;2.122;2023-07-20T00:14:30;101012.16;;;15.74;73.41
76404;BME280;65232;48.358;2.122;2023-07-20T00:14:57;101004.69;;;15.68;73.10
76404;BME280;65232;48.358;2.122;2023-07-20T00:15:22;101010.41;;;15.65;73.64
76404;BME280;65232;48.358;2.122;2023-07-20T00:15:47;101007.25;;;15.69;73.33
76404;BME280;65232;48.358;2.122;2023-07-20T00:16:13;101018.25;;;15.76;73.07
76404;BME280;65232;48.358;2.122;2023-07-20T00:16:38;101013.19;;;15.73;73.06
76404;BME280;65232;48.358;2.122;2023-07-20T00:17:04;101008.41;;;15.67;72.92
76404;BME280;65232;48.358;2.122;2023-07-20T00:17:30;101012.94;;;15.66;73.17
76404;BME280;65232;48.358;2.122;2023-07-20T00:17:55;101015.41;;;15.77;72.72
76404;BME280;65232;48.358;2.122;2023-07-20T00:18:20;101005.69;;;15.67;73.05
76404;BME280;65232;48.358;2.122;2023-07-20T00:18:46;101010.94;;;15.68;72.43
76404;BME280;65232;48.358;2.122;2023-07-20T00:19:12;101012.63;;;15.69;72.83
76404;BME280;65232;48.358;2.122;2023-07-20T00:19:38;101006.94;;;15.72;72.64
76404;BME280;65232;48.358;2.122;2023-07-20T00:20:03;101009.63;;;15.72;72.58
76404;BME280;65232;48.358;2.122;2023-07-20T00:20:30;101010.94;;;15.68;72.48
76404;BME280;65232;48.358;2.122;2023-07-20T00:20:56;101017.88;;;15.71;72.57
76404;BME280;65232;48.358;2.122;2023-07-20T00:21:21;101013.63;;;15.68;72.75
76404;BME280;65232;48.358;2.122;2023-07-20T00:21:47;101012.53;;;15.61;72.93
76404;BME280;65232;48.358;2.122;2023-07-20T00:22:12;101021.34;;;15.63;72.44
76404;BME280;65232;48.358;2.122;2023-07-20T00:22:38;101011.50;;;15.72;72.43
76404;BME280;65232;48.358;2.122;2023-07-20T00:23:04;101011.09;;;15.67;72.02
76404;BME280;65232;48.358;2.122;2023-07-20T00:23:29;101016.88;;;15.72;72.38
76404;BME280;65232;48.358;2.122;2023-07-20T00:23:55;101012.63;;;15.69;72.16
76404;BME280;65232;48.358;2.122;2023-07-20T00:24:20;101011.94;;;15.67;72.26
76404;BME280;65232;48.358;2.122;2023-07-20T00:24:46;101012.69;;;15.60;72.44
76404;BME280;65232;48.358;2.122;2023-07-20T00:25:11;101015.72;;;15.57;72.63
76404;BME280;65232;48.358;2.122;2023-07-20T00:25:40;101007.69;;;15.65;72.40
76404;BME280;65232;48.358;2.122;2023-07-20T00:26:06;101013.69;;;15.59;72.85
76404;BME280;65232;48.358;2.122;2023-07-20T00:26:31;101010.25;;;15.66;72.60
76404;BME280;65232;48.358;2.122;2023-07-20T00:26:57;101007.69;;;15.65;72.74
76404;BME280;65232;48.358;2.122;2023-07-20T00:27:22;101013.69;;;15.59;72.94
76404;BME280;65232;48.358;2.122;2023-07-20T00:27:47;101013.03;;;15.57;72.90
76404;BME280;65232;48.358;2.122;2023-07-20T00:28:13;101008.63;;;15.56;73.05
76404;BME280;65232;48.358;2.122;2023-07-20T00:28:38;101009.84;;;15.61;72.93
76404;BME280;65232;48.358;2.122;2023-07-20T00:29:04;101010.09;;;15.68;72.54
76404;BME280;65232;48.358;2.122;2023-07-20T00:29:29;101006.84;;;15.64;72.88
76404;BME280;65232;48.358;2.122;2023-07-20T00:29:55;101010.69;;;15.62;72.75
76404;BME280;65232;48.358;2.122;2023-07-20T00:30:20;101000.06;;;15.60;72.66
76404;BME280;65232;48.358;2.122;2023-07-20T00:30:46;101012.41;;;15.63;73.17
76404;BME280;65232;48.358;2.122;2023-07-20T00:31:11;101010.63;;;15.71;72.82
76404;BME280;65232;48.358;2.122;2023-07-20T00:31:36;101006.06;;;15.54;73.03
76404;BME280;65232;48.358;2.122;2023-07-20T00:32:02;101011.06;;;15.49;73.51
76404;BME280;65232;48.358;2.122;2023-07-20T00:32:30;101008.50;;;15.47;73.58
76404;BME280;65232;48.358;2.122;2023-07-20T00:32:56;101007.34;;;15.50;73.54
76404;BME280;65232;48.358;2.122;2023-07-20T00:33:22;101016.72;;;15.56;73.55
76404;BME280;65232;48.358;2.122;2023-07-20T00:33:47;101011.19;;;15.57;73.43
76404;BME280;65232;48.358;2.122;2023-07-20T00:34:13;101009.16;;;15.59;73.03
76404;BME280;65232;48.358;2.122;2023-07-20T00:34:39;101014.31;;;15.52;73.39
76404;BME280;65232;48.358;2.122;2023-07-20T00:35:05;101013.25;;;15.63;72.95
76404;BME280;65232;48.358;2.122;2023-07-20T00:35:30;101011.19;;;15.57;73.05
76404;BME280;65232;48.358;2.122;2023-07-20T00:35:56;101007.91;;;15.53;72.87
76404;BME280;65232;48.358;2.122;2023-07-20T00:36:21;101007.50;;;15.48;72.93
76404;BME280;65232;48.358;2.122;2023-07-20T00:36:47;101005.81;;;15.47;73.11
76404;BME280;65232;48.358;2.122;2023-07-20T00:37:14;101006.09;;;15.44;73.23
76404;BME280;65232;48.358;2.122;2023-07-20T00:37:39;101001.34;;;15.38;73.27
76404;BME280;65232;48.358;2.122;2023-07-20T00:38:05;101004.41;;;15.43;72.70
76404;BME280;65232;48.358;2.122;2023-07-20T00:38:31;101003.59;;;15.43;73.14
76404;BME280;65232;48.358;2.122;2023-07-20T00:38:56;101008.50;;;15.47;72.86
76404;BME280;65232;48.358;2.122;2023-07-20T00:39:22;101012.22;;;15.46;73.12
76404;BME280;65232;48.358;2.122;2023-07-20T00:39:47;100999.41;;;15.48;73.17
76404;BME280;65232;48.358;2.122;2023-07-20T00:40:12;101005.94;;;15.56;73.07
76404;BME280;65232;48.358;2.122;2023-07-20T00:40:39;101002.25;;;15.47;73.19
76404;BME280;65232;48.358;2.122;2023-07-20T00:41:04;101003.81;;;15.49;73.30
76404;BME280;65232;48.358;2.122;2023-07-20T00:41:30;101006.97;;;15.45;73.82
76404;BME280;65232;48.358;2.122;2023-07-20T00:41:57;101010.75;;;15.52;73.49
76404;BME280;65232;48.358;2.122;2023-07-20T00:42:23;101004.25;;;15.45;73.78
76404;BME280;65232;48.358;2.122;2023-07-20T00:42:50;101010.13;;;15.40;73.97
76404;BME280;65232;48.358;2.122;2023-07-20T00:43:22;101012.44;;;15.35;73.40
76404;BME280;65232;48.358;2.122;2023-07-20T00:43:48;101000.88;;;15.25;74.36
76404;BME280;65232;48.358;2.122;2023-07-20T00:44:14;100999.41;;;15.31;74.09
76404;BME280;65232;48.358;2.122;2023-07-20T00:44:40;101003.66;;;15.33;73.90
76404;BME280;65232;48.358;2.122;2023-07-20T00:45:06;101001.66;;;15.35;74.06
76404;BME280;65232;48.358;2.122;2023-07-20T00:45:33;101006.41;;;15.24;74.14
76404;BME280;65232;48.358;2.122;2023-07-20T00:45:59;101005.28;;;15.26;74.71
76404;BME280;65232;48.358;2.122;2023-07-20T00:46:24;101006.28;;;15.25;74.48
76404;BME280;65232;48.358;2.122;2023-07-20T00:46:51;101015.34;;;15.24;74.29
76404;BME280;65232;48.358;2.122;2023-07-20T00:47:17;101002.09;;;15.31;74.14
76404;BME280;65232;48.358;2.122;2023-07-20T00:47:42;101006.34;;;15.33;74.03
76404;BME280;65232;48.358;2.122;2023-07-20T00:48:08;101005.13;;;15.28;74.00
76404;BME280;65232;48.358;2.122;2023-07-20T00:48:35;101006.28;;;15.25;74.12
76404;BME280;65232;48.358;2.122;2023-07-20T00:49:01;101003.72;;;15.24;73.93
76404;BME280;65232;48.358;2.122;2023-07-20T00:49:27;100997.66;;;15.39;73.58
76404;BME280;65232;48.358;2.122;2023-07-20T00:49:53;101000.94;;;15.33;73.60
76404;BME280;65232;48.358;2.122;2023-07-20T00:50:19;101007.63;;;15.29;73.75
76404;BME280;65232;48.358;2.122;2023-07-20T00:50:45;101002.44;;;15.28;73.69
76404;BME280;65232;48.358;2.122;2023-07-20T00:51:12;101006.50;;;15.32;73.71
76404;BME280;65232;48.358;2.122;2023-07-20T00:51:38;101006.34;;;15.33;73.56
76404;BME280;65232;48.358;2.122;2023-07-20T00:52:06;100999.66;;;15.37;73.06
76404;BME280;65232;48.358;2.122;2023-07-20T00:52:32;100996.25;;;15.35;73.21
76404;BME280;65232;48.358;2.122;2023-07-20T00:52:58;101005.63;;;15.31;73.31
76404;BME280;65232;48.358;2.122;2023-07-20T00:53:23;101002.56;;;15.26;73.43
76404;BME280;65232;48.358;2.122;2023-07-20T00:53:49;100999.72;;;15.28;73.17
76404;BME280;65232;48.358;2.122;2023-07-20T00:54:15;101003.34;;;15.36;73.09
76404;BME280;65232;48.358;2.122;2023-07-20T00:54:42;101001.66;;;15.35;72.96
76404;BME280;65232;48.358;2.122;2023-07-20T00:55:09;101007.88;;;15.36;72.95
76404;BME280;65232;48.358;2.122;2023-07-20T00:55:34;101010.19;;;15.31;73.47
76404;BME280;65232;48.358;2.122;2023-07-20T00:56:00;101003.94;;;15.30;73.58
76404;BME280;65232;48.358;2.122;2023-07-20T00:56:27;101002.88;;;15.23;74.04
76404;BME280;65232;48.358;2.122;2023-07-20T00:56:53;101002.56;;;15.26;73.87
76404;BME280;65232;48.358;2.122;2023-07-20T00:57:19;101002.94;;;15.31;73.91
76404;BME280;65232;48.358;2.122;2023-07-20T00:57:44;101011.09;;;15.22;74.33
76404;BME280;65232;48.358;2.122;2023-07-20T00:58:10;101008.25;;;15.23;73.94
76404;BME280;65232;48.358;2.122;2023-07-20T00:58:36;101007.00;;;15.17;74.29
76404;BME280;65232;48.358;2.122;2023-07-20T00:59:02;100998.88;;;15.27;73.75
76404;BME280;65232;48.358;2.122;2023-07-20T00:59:27;101004.88;;;15.21;73.95
76404;BME280;65232;48.358;2.122;2023-07-20T00:59:54;100998.94;;;15.17;74.12
76404;BME280;65232;48.358;2.122;2023-07-20T01:00:20;100997.94;;;15.18;73.83
76404;BME280;65232;48.358;2.122;2023-07-20T01:00:45;101009.16;;;15.14;73.94
76404;BME280;65232;48.358;2.122;2023-07-20T01:01:12;101004.09;;;15.11;74.27
76404;BME280;65232;48.358;2.122;2023-07-20T01:01:39;101002.53;;;15.08;74.53
76404;BME280;65232;48.358;2.122;2023-07-20T01:02:05;101008.16;;;15.15;74.41
76404;BME280;65232;48.358;2.122;2023-07-20T01:02:31;101011.84;;;15.14;73.89
76404;BME280;65232;48.358;2.122;2023-07-20T01:02:56;101006.47;;;15.14;74.18
76404;BME280;65232;48.358;2.122;2023-07-20T01:03:22;101002.78;;;15.15;74.02
76404;BME280;65232;48.358;2.122;2023-07-20T01:03:49;101006.16;;;15.17;74.05
76404;BME280;65232;48.358;2.122;2023-07-20T01:04:15;100998.94;;;15.17;74.19
76404;BME280;65232;48.358;2.122;2023-07-20T01:04:41;101000.63;;;15.18;73.72
76404;BME280;65232;48.358;2.122;2023-07-20T01:05:07;100999.03;;;15.43;73.14
76404;BME280;65232;48.358;2.122;2023-07-20T01:05:54;100998.50;;;15.40;73.26
76404;BME280;65232;48.358;2.122;2023-07-20T01:06:39;100997.09;;;15.36;73.35
76404;BME280;65232;48.358;2.122;2023-07-20T01:07:14;100999.34;;;15.40;72.96
76404;BME280;65232;48.358;2.122;2023-07-20T01:07:47;100992.72;;;15.35;72.94
76404;BME280;65232;48.358;2.122;2023-07-20T01:08:24;101000.56;;;15.28;73.46
76404;BME280;65232;48.358;2.122;2023-07-20T01:09:00;101000.25;;;15.13;74.16
76404;BME280;65232;48.358;2.122;2023-07-20T01:09:44;101001.25;;;15.12;74.22
76404;BME280;65232;48.358;2.122;2023-07-20T01:10:20;101000.84;;;15.07;74.60
76404;BME280;65232;48.358;2.122;2023-07-20T01:10:59;101002.53;;;15.08;74.70
76404;BME280;65232;48.358;2.122;2023-07-20T01:11:55;101006.63;;;15.30;74.30
76404;BME280;65232;48.358;2.122;2023-07-20T01:12:42;100995.94;;;15.21;73.49
76404;BME280;65232;48.358;2.122;2023-07-20T01:13:09;100998.78;;;15.19;73.57
76404;BME280;65232;48.358;2.122;2023-07-20T01:13:37;101004.88;;;15.21;73.64
76404;BME280;65232;48.358;2.122;2023-07-20T01:14:03;100999.31;;;15.23;73.40
76404;BME280;65232;48.358;2.122;2023-07-20T01:14:29;100998.47;;;15.22;73.84
76404;BME280;65232;48.358;2.122;2023-07-20T01:14:55;100994.38;;;15.18;73.82
76404;BME280;65232;48.358;2.122;2023-07-20T01:15:20;101002.47;;;15.18;73.93
76404;BME280;65232;48.358;2.122;2023-07-20T01:16:02;101004.78;;;15.31;73.80
76404;BME280;65232;48.358;2.122;2023-07-20T01:16:27;101005.31;;;15.16;74.21
76404;BME280;65232;48.358;2.122;2023-07-20T01:16:53;100998.56;;;15.12;74.68
76404;BME280;65232;48.358;2.122;2023-07-20T01:17:18;100997.38;;;15.15;74.02
76404;BME280;65232;48.358;2.122;2023-07-20T01:17:44;100995.22;;;15.18;74.22
76404;BME280;65232;48.358;2.122;2023-07-20T01:18:09;101000.47;;;15.20;73.91
76404;BME280;65232;48.358;2.122;2023-07-20T01:18:35;101001.88;;;15.24;74.04
76404;BME280;65232;48.358;2.122;2023-07-20T01:19:01;101001.31;;;15.21;73.51
76404;BME280;65232;48.358;2.122;2023-07-20T01:19:26;100995.84;;;15.12;73.53
76404;BME280;65232;48.358;2.122;2023-07-20T01:19:51;100998.16;;;15.07;73.79
76404;BME280;65232;48.358;2.122;2023-07-20T01:20:19;100999.56;;;15.11;73.90
76404;BME280;65232;48.358;2.122;2023-07-20T01:20:45;100994.44;;;15.08;73.88
76404;BME280;65232;48.358;2.122;2023-07-20T01:21:17;100998.84;;;15.09;73.99
76404;BME280;65232;48.358;2.122;2023-07-20T01:24:38;101000.28;;;15.04;74.11
76404;BME280;65232;48.358;2.122;2023-07-20T01:26:38;101005.03;;;14.92;75.02
76404;BME280;65232;48.358;2.122;2023-07-20T01:29:01;100998.81;;;14.92;74.69
76404;BME280;65232;48.358;2.122;2023-07-20T01:30:42;100997.03;;;15.00;74.68
76404;BME280;65232;48.358;2.122;2023-07-20T01:31:22;100991.97;;;14.97;74.75
76404;BME280;65232;48.358;2.122;2023-07-20T01:31:52;100990.56;;;14.93;74.37
76404;BME280;65232;48.358;2.122;2023-07-20T01:32:20;100999.34;;;14.95;74.73
76404;BME280;65232;48.358;2.122;2023-07-20T01:32:53;100991.88;;;14.89;74.82
76404;BME280;65232;48.358;2.122;2023-07-20T01:33:20;100998.09;;;14.90;74.69
76404;BME280;65232;48.358;2.122;2023-07-20T01:33:46;101004.28;;;15.00;74.50
76404;BME280;65232;48.358;2.122;2023-07-20T01:34:15;100997.03;;;15.00;74.55
76404;BME280;65232;48.358;2.122;2023-07-20T01:34:43;101000.94;;;14.88;74.79
76404;BME280;65232;48.358;2.122;2023-07-20T01:35:11;101004.09;;;14.84;75.03
76404;BME280;65232;48.358;2.122;2023-07-20T01:35:41;100995.31;;;14.81;75.01
76404;BME280;65232;48.358;2.122;2023-07-20T01:36:10;100999.09;;;14.89;74.96
76404;BME280;65232;48.358;2.122;2023-07-20T01:36:37;100999.81;;;14.91;74.97
76404;BME280;65232;48.358;2.122;2023-07-20T01:37:03;101008.72;;;14.91;74.51
76404;BME280;65232;48.358;2.122;2023-07-20T01:37:30;101003.06;;;14.94;74.54
76404;BME280;65232;48.358;2.122;2023-07-20T01:37:58;101005.63;;;14.86;74.54
76404;BME280;65232;48.358;2.122;2023-07-20T01:38:24;101003.69;;;14.78;74.85
76404;BME280;65232;48.358;2.122;2023-07-20T01:38:51;100998.00;;;14.81;74.81
76404;BME280;65232;48.358;2.122;2023-07-20T01:39:18;101004.19;;;14.92;74.46
76404;BME280;65232;48.358;2.122;2023-07-20T01:39:44;101009.00;;;14.98;74.35
76404;BME280;65232;48.358;2.122;2023-07-20T01:40:10;101003.53;;;15.07;73.77
76404;BME280;65232;48.358;2.122;2023-07-20T01:40:39;101005.28;;;14.99;73.94
76404;BME280;65232;48.358;2.122;2023-07-20T01:41:06;101001.91;;;14.97;73.72
76404;BME280;65232;48.358;2.122;2023-07-20T01:41:32;101006.59;;;14.95;73.93
76404;BME280;65232;48.358;2.122;2023-07-20T01:41:58;101001.56;;;14.82;74.17
76404;BME280;65232;48.358;2.122;2023-07-20T01:42:24;101010.81;;;14.70;74.86
76404;BME280;65232;48.358;2.122;2023-07-20T01:42:51;101011.22;;;14.75;74.97
76404;BME280;65232;48.358;2.122;2023-07-20T01:43:17;100996.56;;;14.87;74.35
76404;BME280;65232;48.358;2.122;2023-07-20T01:43:43;101005.84;;;14.75;74.59
76404;BME280;65232;48.358;2.122;2023-07-20T01:44:08;101006.19;;;14.62;75.32
76404;BME280;65232;48.358;2.122;2023-07-20T01:44:34;101013.84;;;14.57;75.65
76404;BME280;65232;48.358;2.122;2023-07-20T01:44:59;101006.47;;;14.59;75.47
76404;BME280;65232;48.358;2.122;2023-07-20T01:45:25;100997.91;;;14.73;75.03
76404;BME280;65232;48.358;2.122;2023-07-20T01:45:52;101007.25;;;14.69;74.99
76404;BME280;65232;48.358;2.122;2023-07-20T01:46:17;100998.94;;;14.63;75.42
76404;BME280;65232;48.358;2.122;2023-07-20T01:46:42;100997.94;;;14.64;75.33
76404;BME280;65232;48.358;2.122;2023-07-20T01:47:08;101004.47;;;14.61;75.31
76404;BME280;65232;48.358;2.122;2023-07-20T01:47:33;101004.22;;;14.55;75.94
76404;BME280;65232;48.358;2.122;2023-07-20T01:47:59;100999.66;;;14.55;76.02
76404;BME280;65232;48.358;2.122;2023-07-20T01:48:24;101001.50;;;14.55;76.18
76404;BME280;65232;48.358;2.122;2023-07-20T01:48:50;101004.38;;;14.53;75.87
76404;BME280;65232;48.358;2.122;2023-07-20T01:49:16;100999.84;;;14.44;76.26
76404;BME280;65232;48.358;2.122;2023-07-20T01:49:41;101002.97;;;14.49;76.22
76404;BME280;65232;48.358;2.122;2023-07-20T01:50:07;100997.31;;;14.42;76.24
76404;BME280;65232;48.358;2.122;2023-07-20T01:50:33;101001.50;;;14.55;76.13
76404;BME280;65232;48.358;2.122;2023-07-20T01:50:59;100997.28;;;14.52;75.86
76404;BME280;65232;48.358;2.122;2023-07-20T01:51:25;100990.06;;;14.53;75.84
76404;BME280;65232;48.358;2.122;2023-07-20T01:51:50;100994.59;;;14.52;76.04
76404;BME280;65232;48.358;2.122;2023-07-20T01:52:16;100998.53;;;14.58;75.39
76404;BME280;65232;48.358;2.122;2023-07-20T01:52:41;100990.66;;;14.46;76.09
76404;BME280;65232;48.358;2.122;2023-07-20T01:53:06;100991.78;;;14.44;76.07
76404;BME280;65232;48.358;2.122;2023-07-20T01:53:32;100992.50;;;14.36;76.37
76404;BME280;65232;48.358;2.122;2023-07-20T01:53:58;100991.94;;;14.42;76.23
76404;BME280;65232;48.358;2.122;2023-07-20T01:54:25;100992.63;;;14.44;76.41
76404;BME280;65232;48.358;2.122;2023-07-20T01:54:50;100994.31;;;14.45;76.20
76404;BME280;65232;48.358;2.122;2023-07-20T01:55:15;100990.38;;;14.40;76.50
76404;BME280;65232;48.358;2.122;2023-07-20T01:55:41;100991.22;;;14.50;76.32
76404;BME280;65232;48.358;2.122;2023-07-20T01:56:06;100993.34;;;14.46;76.03
76404;BME280;65232;48.358;2.122;2023-07-20T01:56:32;100979.97;;;14.55;75.85
76404;BME280;65232;48.358;2.122;2023-07-20T01:56:57;100986.06;;;14.57;75.85
76404;BME280;65232;48.358;2.122;2023-07-20T01:57:23;100988.47;;;14.60;75.87
76404;BME280;65232;48.358;2.122;2023-07-20T01:57:48;100987.31;;;14.62;76.13
76404;BME280;65232;48.358;2.122;2023-07-20T01:58:14;100990.00;;;14.62;75.81
76404;BME280;65232;48.358;2.122;2023-07-20T01:58:40;100986.63;;;14.60;75.61
76404;BME280;65232;48.358;2.122;2023-07-20T01:59:05;100984.91;;;14.59;75.47
76404;BME280;65232;48.358;2.122;2023-07-20T01:59:31;100985.91;;;14.58;75.55
76404;BME280;65232;48.358;2.122;2023-07-20T01:59:56;100991.75;;;14.54;75.55
76404;BME280;65232;48.358;2.122;2023-07-20T02:00:22;100989.50;;;14.49;75.65
76404;BME280;65232;48.358;2.122;2023-07-20T02:00:50;100984.84;;;14.41;75.87
76404;BME280;65232;48.358;2.122;2023-07-20T02:01:15;100990.38;;;14.40;75.88
76404;BME280;65232;48.358;2.122;2023-07-20T02:01:40;100985.13;;;14.38;76.19
76404;BME280;65232;48.358;2.122;2023-07-20T02:02:06;100990.78;;;14.45;76.04
76404;BME280;65232;48.358;2.122;2023-07-20T02:02:31;100992.19;;;14.49;75.90
76404;BME280;65232;48.358;2.122;2023-07-20T02:02:57;100995.00;;;14.57;75.73
76404;BME280;65232;48.358;2.122;2023-07-20T02:03:22;100988.94;;;14.45;75.51
76404;BME280;65232;48.358;2.122;2023-07-20T02:03:51;100985.81;;;14.50;75.84
76404;BME280;65232;48.358;2.122;2023-07-20T02:04:16;100994.03;;;14.49;75.80
76404;BME280;65232;48.358;2.122;2023-07-20T02:04:41;100991.78;;;14.44;76.27
76404;BME280;65232;48.358;2.122;2023-07-20T02:05:07;100989.38;;;14.41;76.06
76404;BME280;65232;48.358;2.122;2023-07-20T02:05:32;100989.59;;;14.57;75.77
76404;BME280;65232;48.358;2.122;2023-07-20T02:05:58;100990.00;;;14.62;75.40
76404;BME280;65232;48.358;2.122;2023-07-20T02:06:24;100992.75;;;14.53;75.47
76404;BME280;65232;48.358;2.122;2023-07-20T02:06:50;100992.19;;;14.49;75.40
76404;BME280;65232;48.358;2.122;2023-07-20T02:07:15;100987.22;;;14.54;75.54
76404;BME280;65232;48.358;2.122;2023-07-20T02:07:41;100994.28;;;14.55;75.32
76404;BME280;65232;48.358;2.122;2023-07-20T02:08:07;100987.69;;;14.40;75.69
76404;BME280;65232;48.358;2.122;2023-07-20T02:08:32;100991.50;;;14.37;75.82
76404;BME280;65232;48.358;2.122;2023-07-20T02:08:58;100990.38;;;14.40;75.55
76404;BME280;65232;48.358;2.122;2023-07-20T02:09:24;100992.50;;;14.36;76.10
76404;BME280;65232;48.358;2.122;2023-07-20T02:09:49;100984.41;;;14.36;75.99
76404;BME280;65232;48.358;2.122;2023-07-20T02:10:15;100988.66;;;14.39;75.79
76404;BME280;65232;48.358;2.122;2023-07-20T02:10:41;100990.50;;;14.48;75.34
76404;BME280;65232;48.358;2.122;2023-07-20T02:11:07;100983.69;;;14.44;75.48
76404;BME280;65232;48.358;2.122;2023-07-20T02:11:34;100986.53;;;14.42;75.71
76404;BME280;65232;48.358;2.122;2023-07-20T02:12:00;100987.84;;;14.29;75.96
76404;BME280;65232;48.358;2.122;2023-07-20T02:12:25;100990.53;;;14.29;75.94
76404;BME280;65232;48.358;2.122;2023-07-20T02:12:51;100989.25;;;14.33;76.19
76404;BME280;65232;48.358;2.122;2023-07-20T02:13:16;100987.84;;;14.29;75.96
76404;BME280;65232;48.358;2.122;2023-07-20T02:13:42;100988.13;;;14.26;76.27
76404;BME280;65232;48.358;2.122;2023-07-20T02:14:07;100983.19;;;14.21;76.30
76404;BME280;65232;48.358;2.122;2023-07-20T02:14:32;100994.25;;;14.18;76.53
76404;BME280;65232;48.358;2.122;2023-07-20T02:14:58;100989.00;;;14.17;76.43
76404;BME280;65232;48.358;2.122;2023-07-20T02:15:23;100992.50;;;14.27;76.24
76404;BME280;65232;48.358;2.122;2023-07-20T02:15:50;100985.69;;;14.32;75.82
76404;BME280;65232;48.358;2.122;2023-07-20T02:16:16;100984.41;;;14.36;75.89
76404;BME280;65232;48.358;2.122;2023-07-20T02:16:41;100984.00;;;14.31;75.80
76404;BME280;65232;48.358;2.122;2023-07-20T02:17:07;100983.44;;;14.28;75.99
76404;BME280;65232;48.358;2.122;2023-07-20T02:17:32;100988.28;;;14.24;76.42
76404;BME280;65232;48.358;2.122;2023-07-20T02:17:58;100982.63;;;14.18;76.19
76404;BME280;65232;48.358;2.122;2023-07-20T02:18:23;100986.44;;;14.15;76.71
76404;BME280;65232;48.358;2.122;2023-07-20T02:18:49;100988.72;;;14.20;76.70
76404;BME280;65232;48.358;2.122;2023-07-20T02:19:14;100982.47;;;14.19;76.26
76404;BME280;65232;48.358;2.122;2023-07-20T02:19:40;100989.53;;;14.30;76.14
76404;BME280;65232;48.358;2.122;2023-07-20T02:20:07;100986.59;;;14.23;76.24
76404;BME280;65232;48.358;2.122;2023-07-20T02:20:36;100983.59;;;14.26;76.18
76404;BME280;65232;48.358;2.122;2023-07-20T02:21:01;100977.91;;;14.39;76.02
76404;BME280;65232;48.358;2.122;2023-07-20T02:21:27;100986.41;;;14.34;75.77
76404;BME280;65232;48.358;2.122;2023-07-20T02:21:52;100983.56;;;14.36;75.43
76404;BME280;65232;48.358;2.122;2023-07-20T02:22:18;100978.03;;;14.37;75.74
76404;BME280;65232;48.358;2.122;2023-07-20T02:22:43;100979.47;;;14.32;75.56
76404;BME280;65232;48.358;2.122;2023-07-20T02:23:09;100980.34;;;14.23;76.39
76404;BME280;65232;48.358;2.122;2023-07-20T02:23:35;100986.31;;;14.17;76.45
76404;BME280;65232;48.358;2.122;2023-07-20T02:24:01;100979.66;;;14.11;76.70
76404;BME280;65232;48.358;2.122;2023-07-20T02:24:26;100988.00;;;14.18;76.42
76404;BME280;65232;48.358;2.122;2023-07-20T02:24:52;100979.22;;;14.16;76.80
76404;BME280;65232;48.358;2.122;2023-07-20T02:25:17;100983.34;;;14.10;76.49
76404;BME280;65232;48.358;2.122;2023-07-20T02:25:43;100979.81;;;14.09;76.89
76404;BME280;65232;48.358;2.122;2023-07-20T02:26:09;100978.81;;;14.10;76.43
76404;BME280;65232;48.358;2.122;2023-07-20T02:26:35;100981.50;;;14.10;76.82
76404;BME280;65232;48.358;2.122;2023-07-20T02:27:00;100981.25;;;14.04;76.87
76404;BME280;65232;48.358;2.122;2023-07-20T02:27:26;100981.25;;;14.04;76.98